sensor_id;sensor_type;location;lat;lon;timestamp;P1;durP1;ratioP1;P2;durP2;ratioP2
39898;SDS011;25571;47.876;10.642;2023-05-07T00:02:01;3.35;;;2.92;;
39898;SDS011;25571;47.876;10.642;2023-05-07T00:04:28;2.63;;;2.42;;
39898;SDS011;25571;47.876;10.642;2023-05-07T00:07:00;2.70;;;2.50;;
39898;SDS011;25571;47.876;10.642;2023-05-07T00:09:26;4.20;;;2.65;;
39898;SDS011;25571;47.876;10.642;2023-05-07T00:11:52;2.97;;;2.55;;
39898;SDS011;25571;47.876;10.642;2023-05-07T00:14:17;3.10;;;2.80;;
39898;SDS011;25571;47.876;10.642;2023-05-07T00:16:43;6.70;;;2.75;;
39898;SDS011;25571;47.876;10.642;2023-05-07T00:19:09;3.17;;;2.72;;
39898;SDS011;25571;47.876;10.642;2023-05-07T00:21:34;2.80;;;2.60;;
39898;SDS011;25571;47.876;10.642;2023-05-07T00:24:00;5.10;;;3.08;;
39898;SDS011;25571;47.876;10.642;2023-05-07T00:26:26;3.10;;;2.85;;
39898;SDS011;25571;47.876;10.642;2023-05-07T00:28:51;3.42;;;2.50;;
39898;SDS011;25571;47.876;10.642;2023-05-07T00:31:17;3.13;;;2.83;;
39898;SDS011;25571;47.876;10.642;2023-05-07T00:33:42;3.33;;;2.95;;
39898;SDS011;25571;47.876;10.642;2023-05-07T00:36:08;3.17;;;2.88;;
39898;SDS011;25571;47.876;10.642;2023-05-07T00:38:33;3.05;;;2.60;;
39898;SDS011;25571;47.876;10.642;2023-05-07T00:40:59;2.67;;;2.47;;
39898;SDS011;25571;47.876;10.642;2023-05-07T00:43:25;2.88;;;2.60;;
39898;SDS011;25571;47.876;10.642;2023-05-07T00:45:50;3.20;;;2.90;;
39898;SDS011;25571;47.876;10.642;2023-05-07T00:48:16;3.78;;;2.83;;
39898;SDS011;25571;47.876;10.642;2023-05-07T00:50:42;3.63;;;3.00;;
39898;SDS011;25571;47.876;10.642;2023-05-07T00:53:09;3.05;;;2.60;;
39898;SDS011;25571;47.876;10.642;2023-05-07T00:55:35;3.65;;;2.80;;
39898;SDS011;25571;47.876;10.642;2023-05-07T00:58:01;2.30;;;2.10;;
39898;SDS011;25571;47.876;10.642;2023-05-07T01:00:26;3.53;;;3.22;;
39898;SDS011;25571;47.876;10.642;2023-05-07T01:02:52;2.50;;;2.30;;
39898;SDS011;25571;47.876;10.642;2023-05-07T01:05:18;2.88;;;2.65;;
39898;SDS011;25571;47.876;10.642;2023-05-07T01:07:46;2.80;;;2.50;;
39898;SDS011;25571;47.876;10.642;2023-05-07T01:10:13;3.00;;;2.53;;
39898;SDS011;25571;47.876;10.642;2023-05-07T01:12:39;2.55;;;2.35;;
39898;SDS011;25571;47.876;10.642;2023-05-07T01:15:06;4.72;;;2.75;;
39898;SDS011;25571;47.876;10.642;2023-05-07T01:17:43;2.80;;;2.50;;
39898;SDS011;25571;47.876;10.642;2023-05-07T01:20:09;2.90;;;2.50;;
39898;SDS011;25571;47.876;10.642;2023-05-07T01:22:38;2.95;;;2.67;;
39898;SDS011;25571;47.876;10.642;2023-05-07T01:25:05;2.83;;;2.58;;
39898;SDS011;25571;47.876;10.642;2023-05-07T01:27:32;4.07;;;2.92;;
39898;SDS011;25571;47.876;10.642;2023-05-07T01:30:02;3.72;;;2.85;;
39898;SDS011;25571;47.876;10.642;2023-05-07T01:32:32;3.15;;;2.85;;
39898;SDS011;25571;47.876;10.642;2023-05-07T01:35:01;4.03;;;2.97;;
39898;SDS011;25571;47.876;10.642;2023-05-07T01:39:55;4.18;;;2.88;;
39898;SDS011;25571;47.876;10.642;2023-05-07T01:42:22;3.85;;;2.83;;
39898;SDS011;25571;47.876;10.642;2023-05-07T01:44:48;3.08;;;2.78;;
39898;SDS011;25571;47.876;10.642;2023-05-07T01:47:13;5.57;;;3.50;;
39898;SDS011;25571;47.876;10.642;2023-05-07T01:49:39;3.65;;;3.08;;
39898;SDS011;25571;47.876;10.642;2023-05-07T01:52:06;3.78;;;3.17;;
39898;SDS011;25571;47.876;10.642;2023-05-07T01:54:32;2.83;;;2.63;;
39898;SDS011;25571;47.876;10.642;2023-05-07T01:56:57;3.05;;;2.75;;
39898;SDS011;25571;47.876;10.642;2023-05-07T01:59:23;2.78;;;2.58;;
39898;SDS011;25571;47.876;10.642;2023-05-07T02:01:49;3.95;;;3.10;;
39898;SDS011;25571;47.876;10.642;2023-05-07T02:04:14;2.65;;;2.45;;
39898;SDS011;25571;47.876;10.642;2023-05-07T02:06:40;2.80;;;2.60;;
39898;SDS011;25571;47.876;10.642;2023-05-07T02:09:05;3.47;;;3.00;;
39898;SDS011;25571;47.876;10.642;2023-05-07T02:11:31;3.53;;;3.22;;
39898;SDS011;25571;47.876;10.642;2023-05-07T02:13:57;3.30;;;3.00;;
39898;SDS011;25571;47.876;10.642;2023-05-07T02:16:22;3.45;;;2.45;;
39898;SDS011;25571;47.876;10.642;2023-05-07T02:18:48;3.63;;;2.78;;
39898;SDS011;25571;47.876;10.642;2023-05-07T02:21:14;3.75;;;2.83;;
39898;SDS011;25571;47.876;10.642;2023-05-07T02:23:40;2.65;;;2.45;;
39898;SDS011;25571;47.876;10.642;2023-05-07T02:26:06;3.75;;;2.60;;
39898;SDS011;25571;47.876;10.642;2023-05-07T02:28:31;2.55;;;2.35;;
39898;SDS011;25571;47.876;10.642;2023-05-07T02:30:57;3.63;;;3.15;;
39898;SDS011;25571;47.876;10.642;2023-05-07T02:33:25;3.13;;;2.85;;
39898;SDS011;25571;47.876;10.642;2023-05-07T02:35:51;3.08;;;2.70;;
39898;SDS011;25571;47.876;10.642;2023-05-07T02:38:17;2.95;;;2.65;;
39898;SDS011;25571;47.876;10.642;2023-05-07T02:40:42;3.08;;;2.78;;
39898;SDS011;25571;47.876;10.642;2023-05-07T02:43:08;3.33;;;3.00;;
39898;SDS011;25571;47.876;10.642;2023-05-07T02:45:34;6.28;;;3.38;;
39898;SDS011;25571;47.876;10.642;2023-05-07T02:48:01;4.68;;;3.20;;
39898;SDS011;25571;47.876;10.642;2023-05-07T02:50:26;3.00;;;2.72;;
39898;SDS011;25571;47.876;10.642;2023-05-07T02:52:52;3.40;;;3.10;;
39898;SDS011;25571;47.876;10.642;2023-05-07T02:55:17;3.25;;;2.75;;
39898;SDS011;25571;47.876;10.642;2023-05-07T02:57:43;3.08;;;2.78;;
39898;SDS011;25571;47.876;10.642;2023-05-07T03:00:12;3.30;;;2.90;;
39898;SDS011;25571;47.876;10.642;2023-05-07T03:02:44;3.00;;;2.80;;
39898;SDS011;25571;47.876;10.642;2023-05-07T03:05:10;2.95;;;2.65;;
39898;SDS011;25571;47.876;10.642;2023-05-07T03:07:36;3.38;;;3.08;;
39898;SDS011;25571;47.876;10.642;2023-05-07T03:10:03;3.00;;;2.80;;
39898;SDS011;25571;47.876;10.642;2023-05-07T03:12:30;2.72;;;2.50;;
39898;SDS011;25571;47.876;10.642;2023-05-07T03:14:56;2.90;;;2.65;;
39898;SDS011;25571;47.876;10.642;2023-05-07T03:17:22;2.72;;;2.53;;
39898;SDS011;25571;47.876;10.642;2023-05-07T03:19:47;3.05;;;2.50;;
39898;SDS011;25571;47.876;10.642;2023-05-07T03:22:13;3.10;;;2.40;;
39898;SDS011;25571;47.876;10.642;2023-05-07T03:24:39;2.55;;;2.33;;
39898;SDS011;25571;47.876;10.642;2023-05-07T03:27:05;4.72;;;2.83;;
39898;SDS011;25571;47.876;10.642;2023-05-07T03:29:30;3.55;;;2.20;;
39898;SDS011;25571;47.876;10.642;2023-05-07T03:31:56;6.88;;;2.63;;
39898;SDS011;25571;47.876;10.642;2023-05-07T03:34:21;3.17;;;2.90;;
39898;SDS011;25571;47.876;10.642;2023-05-07T03:36:50;3.03;;;2.33;;
39898;SDS011;25571;47.876;10.642;2023-05-07T03:39:16;4.13;;;2.33;;
39898;SDS011;25571;47.876;10.642;2023-05-07T03:41:41;3.15;;;2.45;;
39898;SDS011;25571;47.876;10.642;2023-05-07T03:44:07;2.58;;;2.30;;
39898;SDS011;25571;47.876;10.642;2023-05-07T03:46:33;2.15;;;2.05;;
39898;SDS011;25571;47.876;10.642;2023-05-07T03:48:59;1.67;;;1.58;;
39898;SDS011;25571;47.876;10.642;2023-05-07T03:51:25;1.98;;;1.80;;
39898;SDS011;25571;47.876;10.642;2023-05-07T03:53:50;2.63;;;2.20;;
39898;SDS011;25571;47.876;10.642;2023-05-07T03:56:19;2.50;;;2.30;;
39898;SDS011;25571;47.876;10.642;2023-05-07T03:58:46;2.45;;;2.25;;
39898;SDS011;25571;47.876;10.642;2023-05-07T04:01:12;3.40;;;2.58;;
39898;SDS011;25571;47.876;10.642;2023-05-07T04:03:37;3.33;;;2.58;;
39898;SDS011;25571;47.876;10.642;2023-05-07T04:06:03;2.63;;;2.42;;
39898;SDS011;25571;47.876;10.642;2023-05-07T04:08:29;3.05;;;2.50;;
39898;SDS011;25571;47.876;10.642;2023-05-07T04:10:55;2.65;;;2.45;;
39898;SDS011;25571;47.876;10.642;2023-05-07T04:13:23;2.78;;;2.50;;
39898;SDS011;25571;47.876;10.642;2023-05-07T04:15:50;3.17;;;2.80;;
39898;SDS011;25571;47.876;10.642;2023-05-07T04:18:16;5.03;;;2.92;;
39898;SDS011;25571;47.876;10.642;2023-05-07T04:20:41;3.17;;;2.60;;
39898;SDS011;25571;47.876;10.642;2023-05-07T04:23:07;2.47;;;2.28;;
39898;SDS011;25571;47.876;10.642;2023-05-07T04:25:33;2.50;;;2.30;;
39898;SDS011;25571;47.876;10.642;2023-05-07T04:27:58;2.63;;;2.42;;
39898;SDS011;25571;47.876;10.642;2023-05-07T04:30:24;3.22;;;2.92;;
39898;SDS011;25571;47.876;10.642;2023-05-07T04:32:50;3.60;;;2.55;;
39898;SDS011;25571;47.876;10.642;2023-05-07T04:35:16;2.78;;;2.35;;
39898;SDS011;25571;47.876;10.642;2023-05-07T04:37:42;2.33;;;2.10;;
39898;SDS011;25571;47.876;10.642;2023-05-07T04:40:08;2.42;;;2.22;;
39898;SDS011;25571;47.876;10.642;2023-05-07T04:42:33;4.05;;;2.00;;
39898;SDS011;25571;47.876;10.642;2023-05-07T04:44:59;2.88;;;2.50;;
39898;SDS011;25571;47.876;10.642;2023-05-07T04:47:25;2.45;;;2.20;;
39898;SDS011;25571;47.876;10.642;2023-05-07T04:49:50;5.47;;;2.60;;
39898;SDS011;25571;47.876;10.642;2023-05-07T04:52:16;2.30;;;2.10;;
39898;SDS011;25571;47.876;10.642;2023-05-07T04:54:41;2.70;;;2.50;;
39898;SDS011;25571;47.876;10.642;2023-05-07T04:57:07;3.60;;;2.10;;
39898;SDS011;25571;47.876;10.642;2023-05-07T04:59:33;3.15;;;2.70;;
39898;SDS011;25571;47.876;10.642;2023-05-07T05:01:58;3.75;;;2.60;;
39898;SDS011;25571;47.876;10.642;2023-05-07T05:04:24;4.85;;;2.40;;
39898;SDS011;25571;47.876;10.642;2023-05-07T05:06:49;2.65;;;2.45;;
39898;SDS011;25571;47.876;10.642;2023-05-07T05:09:15;4.18;;;2.63;;
39898;SDS011;25571;47.876;10.642;2023-05-07T05:11:41;2.35;;;2.15;;
39898;SDS011;25571;47.876;10.642;2023-05-07T05:14:06;3.40;;;2.38;;
39898;SDS011;25571;47.876;10.642;2023-05-07T05:16:32;2.40;;;2.20;;
39898;SDS011;25571;47.876;10.642;2023-05-07T05:18:58;2.60;;;2.25;;
39898;SDS011;25571;47.876;10.642;2023-05-07T05:21:24;2.60;;;2.40;;
39898;SDS011;25571;47.876;10.642;2023-05-07T05:23:49;2.60;;;2.40;;
39898;SDS011;25571;47.876;10.642;2023-05-07T05:26:15;3.15;;;2.85;;
39898;SDS011;25571;47.876;10.642;2023-05-07T05:28:40;2.67;;;2.47;;
39898;SDS011;25571;47.876;10.642;2023-05-07T05:31:06;3.03;;;2.75;;
39898;SDS011;25571;47.876;10.642;2023-05-07T05:33:31;4.10;;;2.80;;
39898;SDS011;25571;47.876;10.642;2023-05-07T05:35:57;2.97;;;2.67;;
39898;SDS011;25571;47.876;10.642;2023-05-07T05:38:23;4.43;;;3.53;;
39898;SDS011;25571;47.876;10.642;2023-05-07T05:40:48;3.42;;;3.13;;
39898;SDS011;25571;47.876;10.642;2023-05-07T05:43:14;3.67;;;3.22;;
39898;SDS011;25571;47.876;10.642;2023-05-07T05:45:39;3.00;;;2.67;;
39898;SDS011;25571;47.876;10.642;2023-05-07T05:48:05;2.47;;;2.28;;
39898;SDS011;25571;47.876;10.642;2023-05-07T05:50:31;2.95;;;2.65;;
39898;SDS011;25571;47.876;10.642;2023-05-07T05:52:56;2.80;;;2.55;;
39898;SDS011;25571;47.876;10.642;2023-05-07T05:55:22;3.58;;;3.10;;
39898;SDS011;25571;47.876;10.642;2023-05-07T05:57:48;2.90;;;2.58;;
39898;SDS011;25571;47.876;10.642;2023-05-07T06:00:15;2.90;;;2.60;;
39898;SDS011;25571;47.876;10.642;2023-05-07T06:02:41;2.75;;;2.50;;
39898;SDS011;25571;47.876;10.642;2023-05-07T06:05:07;3.00;;;2.70;;
39898;SDS011;25571;47.876;10.642;2023-05-07T06:07:33;3.42;;;2.50;;
39898;SDS011;25571;47.876;10.642;2023-05-07T06:09:59;3.22;;;2.65;;
39898;SDS011;25571;47.876;10.642;2023-05-07T06:12:25;2.63;;;2.42;;
39898;SDS011;25571;47.876;10.642;2023-05-07T06:14:51;2.58;;;2.38;;
39898;SDS011;25571;47.876;10.642;2023-05-07T06:17:17;4.93;;;2.92;;
39898;SDS011;25571;47.876;10.642;2023-05-07T06:19:42;3.30;;;2.30;;
39898;SDS011;25571;47.876;10.642;2023-05-07T06:22:08;2.70;;;2.50;;
39898;SDS011;25571;47.876;10.642;2023-05-07T06:24:33;2.88;;;2.67;;
39898;SDS011;25571;47.876;10.642;2023-05-07T06:26:59;2.88;;;2.10;;
39898;SDS011;25571;47.876;10.642;2023-05-07T06:29:25;2.47;;;2.20;;
39898;SDS011;25571;47.876;10.642;2023-05-07T06:31:52;2.38;;;2.17;;
39898;SDS011;25571;47.876;10.642;2023-05-07T06:34:18;2.65;;;2.33;;
39898;SDS011;25571;47.876;10.642;2023-05-07T06:36:43;2.40;;;2.10;;
39898;SDS011;25571;47.876;10.642;2023-05-07T06:39:09;2.67;;;2.15;;
39898;SDS011;25571;47.876;10.642;2023-05-07T06:41:34;2.20;;;2.00;;
39898;SDS011;25571;47.876;10.642;2023-05-07T06:44:01;2.50;;;2.28;;
39898;SDS011;25571;47.876;10.642;2023-05-07T06:46:27;1.65;;;1.55;;
39898;SDS011;25571;47.876;10.642;2023-05-07T06:48:54;2.95;;;2.08;;
39898;SDS011;25571;47.876;10.642;2023-05-07T06:51:19;1.83;;;1.73;;
39898;SDS011;25571;47.876;10.642;2023-05-07T06:53:45;3.83;;;1.77;;
39898;SDS011;25571;47.876;10.642;2023-05-07T06:56:11;1.85;;;1.60;;
39898;SDS011;25571;47.876;10.642;2023-05-07T06:58:37;2.40;;;2.17;;
39898;SDS011;25571;47.876;10.642;2023-05-07T07:01:02;2.53;;;1.80;;
39898;SDS011;25571;47.876;10.642;2023-05-07T07:03:28;1.98;;;1.73;;
39898;SDS011;25571;47.876;10.642;2023-05-07T07:05:53;1.65;;;1.55;;
39898;SDS011;25571;47.876;10.642;2023-05-07T07:08:19;1.90;;;1.80;;
39898;SDS011;25571;47.876;10.642;2023-05-07T07:10:46;1.67;;;1.58;;
39898;SDS011;25571;47.876;10.642;2023-05-07T07:13:12;8.55;;;1.85;;
39898;SDS011;25571;47.876;10.642;2023-05-07T07:15:38;1.55;;;1.42;;
39898;SDS011;25571;47.876;10.642;2023-05-07T07:18:03;1.95;;;1.70;;
39898;SDS011;25571;47.876;10.642;2023-05-07T07:20:29;1.67;;;1.52;;
39898;SDS011;25571;47.876;10.642;2023-05-07T07:22:55;1.75;;;1.65;;
39898;SDS011;25571;47.876;10.642;2023-05-07T07:25:20;1.75;;;1.65;;
39898;SDS011;25571;47.876;10.642;2023-05-07T07:27:46;1.85;;;1.70;;
39898;SDS011;25571;47.876;10.642;2023-05-07T07:30:12;1.95;;;1.30;;
39898;SDS011;25571;47.876;10.642;2023-05-07T07:32:38;1.75;;;1.65;;
39898;SDS011;25571;47.876;10.642;2023-05-07T07:35:03;1.70;;;1.52;;
39898;SDS011;25571;47.876;10.642;2023-05-07T07:37:29;1.77;;;1.60;;
39898;SDS011;25571;47.876;10.642;2023-05-07T07:39:55;3.88;;;1.73;;
39898;SDS011;25571;47.876;10.642;2023-05-07T07:42:20;1.35;;;1.25;;
39898;SDS011;25571;47.876;10.642;2023-05-07T07:44:46;2.58;;;1.73;;
39898;SDS011;25571;47.876;10.642;2023-05-07T07:47:12;2.95;;;1.55;;
39898;SDS011;25571;47.876;10.642;2023-05-07T07:49:37;2.28;;;1.70;;
39898;SDS011;25571;47.876;10.642;2023-05-07T07:52:03;1.80;;;1.40;;
39898;SDS011;25571;47.876;10.642;2023-05-07T07:54:28;1.45;;;1.33;;
39898;SDS011;25571;47.876;10.642;2023-05-07T07:56:55;2.13;;;1.63;;
39898;SDS011;25571;47.876;10.642;2023-05-07T07:59:20;1.80;;;1.40;;
39898;SDS011;25571;47.876;10.642;2023-05-07T08:01:46;1.88;;;1.33;;
39898;SDS011;25571;47.876;10.642;2023-05-07T08:04:14;2.55;;;1.20;;
39898;SDS011;25571;47.876;10.642;2023-05-07T08:06:40;1.73;;;1.10;;
39898;SDS011;25571;47.876;10.642;2023-05-07T08:09:05;1.50;;;1.40;;
39898;SDS011;25571;47.876;10.642;2023-05-07T08:11:31;1.58;;;1.20;;
39898;SDS011;25571;47.876;10.642;2023-05-07T08:13:56;2.08;;;1.17;;
39898;SDS011;25571;47.876;10.642;2023-05-07T08:16:22;1.27;;;1.17;;
39898;SDS011;25571;47.876;10.642;2023-05-07T08:18:48;1.52;;;0.98;;
39898;SDS011;25571;47.876;10.642;2023-05-07T08:21:13;1.38;;;1.13;;
39898;SDS011;25571;47.876;10.642;2023-05-07T08:23:39;1.10;;;0.80;;
39898;SDS011;25571;47.876;10.642;2023-05-07T08:26:05;0.70;;;0.70;;
39898;SDS011;25571;47.876;10.642;2023-05-07T08:28:32;0.93;;;0.82;;
39898;SDS011;25571;47.876;10.642;2023-05-07T08:30:57;0.75;;;0.75;;
39898;SDS011;25571;47.876;10.642;2023-05-07T08:33:25;0.90;;;0.68;;
39898;SDS011;25571;47.876;10.642;2023-05-07T08:35:51;0.40;;;0.40;;
39898;SDS011;25571;47.876;10.642;2023-05-07T08:38:16;1.17;;;0.73;;
39898;SDS011;25571;47.876;10.642;2023-05-07T08:40:42;0.70;;;0.70;;
39898;SDS011;25571;47.876;10.642;2023-05-07T08:43:07;1.02;;;0.70;;
39898;SDS011;25571;47.876;10.642;2023-05-07T08:45:35;1.08;;;0.82;;
39898;SDS011;25571;47.876;10.642;2023-05-07T08:48:05;0.82;;;0.68;;
39898;SDS011;25571;47.876;10.642;2023-05-07T08:50:37;0.93;;;0.60;;
39898;SDS011;25571;47.876;10.642;2023-05-07T08:53:03;0.70;;;0.60;;
39898;SDS011;25571;47.876;10.642;2023-05-07T08:55:30;0.57;;;0.57;;
39898;SDS011;25571;47.876;10.642;2023-05-07T08:57:56;0.57;;;0.57;;
39898;SDS011;25571;47.876;10.642;2023-05-07T09:00:21;1.30;;;0.75;;
39898;SDS011;25571;47.876;10.642;2023-05-07T09:02:47;1.92;;;0.75;;
39898;SDS011;25571;47.876;10.642;2023-05-07T09:05:13;1.17;;;0.77;;
39898;SDS011;25571;47.876;10.642;2023-05-07T09:07:39;0.60;;;0.60;;
39898;SDS011;25571;47.876;10.642;2023-05-07T09:10:05;0.80;;;0.63;;
39898;SDS011;25571;47.876;10.642;2023-05-07T09:12:31;0.60;;;0.60;;
39898;SDS011;25571;47.876;10.642;2023-05-07T09:14:58;1.40;;;0.80;;
39898;SDS011;25571;47.876;10.642;2023-05-07T09:17:24;0.90;;;0.90;;
39898;SDS011;25571;47.876;10.642;2023-05-07T09:19:50;0.93;;;0.77;;
39898;SDS011;25571;47.876;10.642;2023-05-07T09:22:16;1.05;;;0.82;;
39898;SDS011;25571;47.876;10.642;2023-05-07T09:24:46;1.20;;;1.10;;
39898;SDS011;25571;47.876;10.642;2023-05-07T09:27:13;2.22;;;1.13;;
39898;SDS011;25571;47.876;10.642;2023-05-07T09:29:39;1.45;;;0.90;;
39898;SDS011;25571;47.876;10.642;2023-05-07T09:32:05;1.52;;;0.90;;
39898;SDS011;25571;47.876;10.642;2023-05-07T09:34:31;0.98;;;0.93;;
39898;SDS011;25571;47.876;10.642;2023-05-07T09:37:02;1.00;;;0.90;;
39898;SDS011;25571;47.876;10.642;2023-05-07T09:39:41;1.70;;;0.70;;
39898;SDS011;25571;47.876;10.642;2023-05-07T09:42:09;1.55;;;1.00;;
39898;SDS011;25571;47.876;10.642;2023-05-07T09:44:36;0.80;;;0.80;;
39898;SDS011;25571;47.876;10.642;2023-05-07T09:47:04;2.80;;;1.00;;
39898;SDS011;25571;47.876;10.642;2023-05-07T09:49:30;0.93;;;0.90;;
39898;SDS011;25571;47.876;10.642;2023-05-07T09:52:05;1.10;;;0.82;;
39898;SDS011;25571;47.876;10.642;2023-05-07T09:54:33;1.35;;;0.98;;
39898;SDS011;25571;47.876;10.642;2023-05-07T09:57:03;1.38;;;1.20;;
39898;SDS011;25571;47.876;10.642;2023-05-07T09:59:31;2.17;;;0.77;;
39898;SDS011;25571;47.876;10.642;2023-05-07T10:01:58;1.25;;;1.00;;
39898;SDS011;25571;47.876;10.642;2023-05-07T10:04:25;1.77;;;1.10;;
39898;SDS011;25571;47.876;10.642;2023-05-07T10:06:51;1.65;;;0.65;;
39898;SDS011;25571;47.876;10.642;2023-05-07T10:09:17;1.35;;;0.90;;
39898;SDS011;25571;47.876;10.642;2023-05-07T10:11:43;1.33;;;0.70;;
39898;SDS011;25571;47.876;10.642;2023-05-07T10:14:09;1.35;;;0.77;;
39898;SDS011;25571;47.876;10.642;2023-05-07T10:16:36;1.45;;;1.08;;
39898;SDS011;25571;47.876;10.642;2023-05-07T10:19:05;1.58;;;1.13;;
39898;SDS011;25571;47.876;10.642;2023-05-07T10:21:34;1.00;;;0.90;;
39898;SDS011;25571;47.876;10.642;2023-05-07T10:24:04;1.10;;;1.00;;
39898;SDS011;25571;47.876;10.642;2023-05-07T10:26:31;0.80;;;0.80;;
39898;SDS011;25571;47.876;10.642;2023-05-07T10:28:59;0.98;;;0.88;;
39898;SDS011;25571;47.876;10.642;2023-05-07T10:34:16;0.93;;;0.82;;
39898;SDS011;25571;47.876;10.642;2023-05-07T10:36:46;1.92;;;0.95;;
39898;SDS011;25571;47.876;10.642;2023-05-07T10:39:13;1.15;;;0.80;;
39898;SDS011;25571;47.876;10.642;2023-05-07T10:41:39;0.63;;;0.60;;
39898;SDS011;25571;47.876;10.642;2023-05-07T10:44:04;1.10;;;1.00;;
39898;SDS011;25571;47.876;10.642;2023-05-07T10:46:30;1.35;;;0.90;;
39898;SDS011;25571;47.876;10.642;2023-05-07T10:51:26;1.02;;;0.90;;
39898;SDS011;25571;47.876;10.642;2023-05-07T10:56:40;1.35;;;1.00;;
39898;SDS011;25571;47.876;10.642;2023-05-07T11:01:55;1.05;;;0.82;;
39898;SDS011;25571;47.876;10.642;2023-05-07T11:04:27;0.95;;;0.95;;
39898;SDS011;25571;47.876;10.642;2023-05-07T11:15:08;1.52;;;0.90;;
39898;SDS011;25571;47.876;10.642;2023-05-07T11:20:19;2.83;;;0.80;;
39898;SDS011;25571;47.876;10.642;2023-05-07T11:22:45;0.95;;;0.95;;
39898;SDS011;25571;47.876;10.642;2023-05-07T11:25:17;3.03;;;1.35;;
39898;SDS011;25571;47.876;10.642;2023-05-07T11:27:44;1.33;;;1.08;;
39898;SDS011;25571;47.876;10.642;2023-05-07T11:30:10;1.38;;;1.02;;
39898;SDS011;25571;47.876;10.642;2023-05-07T11:32:43;1.05;;;0.98;;
39898;SDS011;25571;47.876;10.642;2023-05-07T11:35:12;1.15;;;1.02;;
39898;SDS011;25571;47.876;10.642;2023-05-07T11:37:40;1.80;;;1.20;;
39898;SDS011;25571;47.876;10.642;2023-05-07T11:40:07;0.82;;;0.80;;
39898;SDS011;25571;47.876;10.642;2023-05-07T11:42:36;1.48;;;1.10;;
39898;SDS011;25571;47.876;10.642;2023-05-07T11:45:03;2.47;;;0.93;;
39898;SDS011;25571;47.876;10.642;2023-05-07T11:47:30;1.30;;;1.20;;
39898;SDS011;25571;47.876;10.642;2023-05-07T11:49:57;1.33;;;1.00;;
39898;SDS011;25571;47.876;10.642;2023-05-07T11:52:31;1.60;;;1.20;;
39898;SDS011;25571;47.876;10.642;2023-05-07T11:54:58;1.00;;;1.00;;
39898;SDS011;25571;47.876;10.642;2023-05-07T11:57:25;1.63;;;1.10;;
39898;SDS011;25571;47.876;10.642;2023-05-07T11:59:58;1.63;;;1.33;;
39898;SDS011;25571;47.876;10.642;2023-05-07T12:02:24;1.63;;;1.02;;
39898;SDS011;25571;47.876;10.642;2023-05-07T12:04:51;1.70;;;1.05;;
39898;SDS011;25571;47.876;10.642;2023-05-07T12:07:17;2.05;;;0.95;;
39898;SDS011;25571;47.876;10.642;2023-05-07T12:09:43;1.40;;;1.10;;
39898;SDS011;25571;47.876;10.642;2023-05-07T12:12:10;1.55;;;1.00;;
39898;SDS011;25571;47.876;10.642;2023-05-07T12:14:39;2.38;;;0.88;;
39898;SDS011;25571;47.876;10.642;2023-05-07T12:17:06;1.00;;;0.90;;
39898;SDS011;25571;47.876;10.642;2023-05-07T12:19:33;0.85;;;0.85;;
39898;SDS011;25571;47.876;10.642;2023-05-07T12:22:00;1.83;;;1.20;;
39898;SDS011;25571;47.876;10.642;2023-05-07T12:24:27;0.80;;;0.77;;
39898;SDS011;25571;47.876;10.642;2023-05-07T12:26:53;1.00;;;0.90;;
39898;SDS011;25571;47.876;10.642;2023-05-07T12:29:21;0.63;;;0.50;;
39898;SDS011;25571;47.876;10.642;2023-05-07T12:31:47;1.13;;;0.80;;
39898;SDS011;25571;47.876;10.642;2023-05-07T12:34:15;1.05;;;0.95;;
39898;SDS011;25571;47.876;10.642;2023-05-07T12:36:40;1.70;;;0.90;;
39898;SDS011;25571;47.876;10.642;2023-05-07T12:39:06;2.22;;;0.95;;
39898;SDS011;25571;47.876;10.642;2023-05-07T12:41:53;0.95;;;0.75;;
39898;SDS011;25571;47.876;10.642;2023-05-07T12:44:21;2.05;;;0.88;;
39898;SDS011;25571;47.876;10.642;2023-05-07T12:46:47;1.23;;;0.73;;
39898;SDS011;25571;47.876;10.642;2023-05-07T12:49:13;1.10;;;1.00;;
39898;SDS011;25571;47.876;10.642;2023-05-07T12:51:39;1.00;;;0.90;;
39898;SDS011;25571;47.876;10.642;2023-05-07T12:54:04;1.95;;;0.90;;
39898;SDS011;25571;47.876;10.642;2023-05-07T12:56:30;0.93;;;0.80;;
39898;SDS011;25571;47.876;10.642;2023-05-07T12:58:59;2.22;;;1.17;;
39898;SDS011;25571;47.876;10.642;2023-05-07T13:03:54;0.63;;;0.63;;
39898;SDS011;25571;47.876;10.642;2023-05-07T13:06:19;1.38;;;0.98;;
39898;SDS011;25571;47.876;10.642;2023-05-07T13:08:45;0.68;;;0.68;;
39898;SDS011;25571;47.876;10.642;2023-05-07T13:11:11;1.55;;;1.05;;
39898;SDS011;25571;47.876;10.642;2023-05-07T13:13:38;0.93;;;0.85;;
39898;SDS011;25571;47.876;10.642;2023-05-07T13:16:05;1.70;;;0.93;;
39898;SDS011;25571;47.876;10.642;2023-05-07T13:18:32;1.17;;;1.08;;
39898;SDS011;25571;47.876;10.642;2023-05-07T13:20:59;1.33;;;1.20;;
39898;SDS011;25571;47.876;10.642;2023-05-07T13:23:25;1.60;;;1.20;;
39898;SDS011;25571;47.876;10.642;2023-05-07T13:25:52;2.83;;;1.25;;
39898;SDS011;25571;47.876;10.642;2023-05-07T13:28:19;1.52;;;1.02;;
39898;SDS011;25571;47.876;10.642;2023-05-07T13:30:45;2.58;;;1.25;;
39898;SDS011;25571;47.876;10.642;2023-05-07T13:33:11;1.25;;;1.15;;
39898;SDS011;25571;47.876;10.642;2023-05-07T13:35:37;3.83;;;1.30;;
39898;SDS011;25571;47.876;10.642;2023-05-07T13:38:03;2.55;;;1.40;;
39898;SDS011;25571;47.876;10.642;2023-05-07T13:40:28;1.85;;;1.65;;
39898;SDS011;25571;47.876;10.642;2023-05-07T13:42:56;1.45;;;1.20;;
39898;SDS011;25571;47.876;10.642;2023-05-07T13:45:23;2.72;;;1.10;;
39898;SDS011;25571;47.876;10.642;2023-05-07T13:47:50;2.38;;;1.20;;
39898;SDS011;25571;47.876;10.642;2023-05-07T13:50:16;1.35;;;1.10;;
39898;SDS011;25571;47.876;10.642;2023-05-07T13:52:42;1.70;;;1.00;;
39898;SDS011;25571;47.876;10.642;2023-05-07T13:55:15;1.00;;;0.90;;
39898;SDS011;25571;47.876;10.642;2023-05-07T13:57:44;1.02;;;1.00;;
39898;SDS011;25571;47.876;10.642;2023-05-07T14:00:11;2.60;;;1.15;;
39898;SDS011;25571;47.876;10.642;2023-05-07T14:02:37;3.05;;;1.30;;
39898;SDS011;25571;47.876;10.642;2023-05-07T14:05:03;1.40;;;1.23;;
39898;SDS011;25571;47.876;10.642;2023-05-07T14:07:29;1.52;;;1.40;;
39898;SDS011;25571;47.876;10.642;2023-05-07T14:09:54;1.13;;;1.02;;
39898;SDS011;25571;47.876;10.642;2023-05-07T14:12:21;1.35;;;1.02;;
39898;SDS011;25571;47.876;10.642;2023-05-07T14:14:47;2.05;;;1.25;;
39898;SDS011;25571;47.876;10.642;2023-05-07T14:17:14;1.55;;;1.20;;
39898;SDS011;25571;47.876;10.642;2023-05-07T14:19:41;1.58;;;1.38;;
39898;SDS011;25571;47.876;10.642;2023-05-07T14:22:07;3.42;;;1.80;;
39898;SDS011;25571;47.876;10.642;2023-05-07T14:24:32;1.30;;;1.20;;
39898;SDS011;25571;47.876;10.642;2023-05-07T14:26:58;2.08;;;1.27;;
39898;SDS011;25571;47.876;10.642;2023-05-07T14:29:23;2.50;;;1.23;;
39898;SDS011;25571;47.876;10.642;2023-05-07T14:31:49;1.58;;;1.00;;
39898;SDS011;25571;47.876;10.642;2023-05-07T14:34:14;2.55;;;1.45;;
39898;SDS011;25571;47.876;10.642;2023-05-07T14:36:40;2.30;;;1.30;;
39898;SDS011;25571;47.876;10.642;2023-05-07T14:39:05;1.58;;;1.33;;
39898;SDS011;25571;47.876;10.642;2023-05-07T14:41:31;1.55;;;1.45;;
39898;SDS011;25571;47.876;10.642;2023-05-07T14:43:58;1.42;;;0.90;;
39898;SDS011;25571;47.876;10.642;2023-05-07T14:46:23;1.23;;;1.00;;
39898;SDS011;25571;47.876;10.642;2023-05-07T14:48:49;1.17;;;0.90;;
39898;SDS011;25571;47.876;10.642;2023-05-07T14:51:15;1.60;;;1.13;;
39898;SDS011;25571;47.876;10.642;2023-05-07T14:53:41;1.33;;;0.80;;
39898;SDS011;25571;47.876;10.642;2023-05-07T14:56:07;0.82;;;0.70;;